Millhaven, Canada
Current Conditions -  °F | °C
As of 10:00 AM on Thursday 18 Dec 2014 (Local Time) from CYGK Reporting Station
Overcast Overcast  
Wind Chill: -6°   Ceiling: 1800
Heat Index: -1°   Visibility: 15mi
Dew Point: -5°   Wind: 12mph
Humidity: 75%   Direction: 300°WNW
Pressure: 30.02"   Gusts: 17mph
Location:  44.2°N, 76.75°W
Report Text: CYGK 181500Z 30010G15KT 15SM BKN018 OVC043 M01/M05 A3002 RMK SC5SC3 SLP171
Loading
Personal Weather Stations






























Interactive Weather Map New forecast layout! Learn more

10-Day Weather Forecast

Advertisements
Track Severe Weather on mobile